Time;durP1;ratioP1;P1;durP2;ratioP2;P2;SDS_P1;SDS_P2;PMS_P1;PMS_P2;Temp;Humidity;BMP_temperature;BMP_pressure;BME280_temperature;BME280_humidity;BME280_pressure;Samples;Min_cycle;Max_cycle;Signal;HPM_P1;HPM_P2
2023/10/11 00:00:40;;;;;;;15.00;11.30;;;16.10;99.90;;;;;;5086106;28;20478;-71
2023/10/11 00:03:15;;;;;;;18.23;12.70;;;16.10;99.90;;;;;;5075202;28;20481;-71
2023/10/11 00:05:45;;;;;;;15.87;11.43;;;16.10;99.90;;;;;;5072901;28;20430;-72
2023/10/11 00:08:16;;;;;;;14.40;10.90;;;16.10;99.90;;;;;;5072689;28;20505;-72
2023/10/11 00:10:49;;;;;;;16.77;10.90;;;16.10;99.90;;;;;;5072409;28;20466;-71
2023/10/11 00:13:19;;;;;;;17.47;11.60;;;16.10;99.90;;;;;;5073154;28;20462;-71
2023/10/11 00:15:49;;;;;;;21.30;11.87;;;16.10;99.90;;;;;;5073995;28;20495;-71
2023/10/11 00:18:18;;;;;;;18.53;13.47;;;16.20;99.90;;;;;;5078938;28;20932;-71
2023/10/11 00:20:50;;;;;;;15.40;10.00;;;16.20;99.90;;;;;;5083304;28;20470;-70
2023/10/11 00:23:21;;;;;;;15.00;10.90;;;16.10;99.90;;;;;;5083265;28;20866;-72
2023/10/11 00:25:50;;;;;;;15.00;11.97;;;16.10;99.90;;;;;;5080287;28;20427;-72
2023/10/11 00:28:22;;;;;;;24.23;12.67;;;16.10;99.90;;;;;;5079919;28;20447;-72
2023/10/11 00:30:51;;;;;;;15.43;11.80;;;16.10;99.90;;;;;;5077193;28;20423;-72
2023/10/11 00:33:21;;;;;;;16.53;11.63;;;16.10;99.90;;;;;;5076660;28;20828;-73
2023/10/11 00:35:52;;;;;;;14.67;11.47;;;16.10;99.90;;;;;;5077935;28;21013;-73
2023/10/11 00:38:26;;;;;;;23.13;11.30;;;16.10;99.90;;;;;;5078767;28;20587;-73
2023/10/11 00:41:07;;;;;;;14.83;11.27;;;16.10;99.90;;;;;;5082688;28;20430;-71
2023/10/11 00:43:38;;;;;;;20.57;11.97;;;16.10;99.90;;;;;;5078897;28;20462;-72
2023/10/11 00:46:08;;;;;;;13.47;10.43;;;16.00;99.90;;;;;;5056180;28;20447;-71
2023/10/11 00:48:43;;;;;;;19.03;11.87;;;16.00;99.90;;;;;;5038946;28;20453;-72
2023/10/11 00:51:12;;;;;;;17.60;11.47;;;16.00;99.90;;;;;;5058464;28;20478;-73
2023/10/11 00:53:40;;;;;;;24.00;11.60;;;16.00;99.90;;;;;;5059133;28;20494;-73
2023/10/11 00:56:08;;;;;;;14.97;11.00;;;16.00;99.90;;;;;;5062569;28;20420;-72
2023/10/11 00:58:38;;;;;;;14.83;11.07;;;15.90;99.90;;;;;;5062767;28;20714;-71
2023/10/11 01:01:08;;;;;;;16.70;10.23;;;15.90;99.90;;;;;;5057186;28;20431;-74
2023/10/11 01:03:37;;;;;;;14.53;9.73;;;15.90;99.90;;;;;;5059188;28;20554;-72
2023/10/11 01:06:05;;;;;;;15.33;10.40;;;15.90;99.90;;;;;;5066678;28;20478;-72
2023/10/11 01:08:39;;;;;;;11.70;10.37;;;15.90;99.90;;;;;;5065294;28;20457;-71
2023/10/11 01:11:12;;;;;;;16.30;9.13;;;15.90;99.90;;;;;;5062120;28;20461;-71
2023/10/11 01:13:41;;;;;;;14.70;9.20;;;15.90;99.90;;;;;;5061421;28;20912;-71
2023/10/11 01:16:11;;;;;;;13.50;9.43;;;15.90;99.90;;;;;;5081421;28;20423;-71
2023/10/11 01:18:40;;;;;;;14.10;9.40;;;15.90;99.90;;;;;;5082182;28;20427;-72
2023/10/11 01:21:09;;;;;;;12.83;10.50;;;15.90;99.90;;;;;;5086805;28;20431;-71
2023/10/11 01:23:40;;;;;;;13.07;9.30;;;15.90;99.90;;;;;;5089323;28;20459;-71
2023/10/11 01:26:09;;;;;;;18.17;9.97;;;15.90;99.90;;;;;;5085267;28;20498;-71
2023/10/11 01:28:37;;;;;;;10.27;8.37;;;15.90;99.90;;;;;;5084685;28;20844;-70
2023/10/11 01:31:09;;;;;;;14.20;9.37;;;16.00;99.90;;;;;;5077249;28;20454;-70
2023/10/11 01:33:41;;;;;;;15.40;9.77;;;16.00;99.90;;;;;;5074813;28;20501;-71
2023/10/11 01:36:15;;;;;;;12.77;8.80;;;16.00;99.90;;;;;;5074916;28;20509;-72
2023/10/11 01:38:46;;;;;;;16.00;9.33;;;16.00;99.90;;;;;;5074258;28;20461;-70
2023/10/11 01:41:15;;;;;;;12.00;9.50;;;16.00;99.90;;;;;;5074341;28;20963;-72
2023/10/11 01:43:45;;;;;;;10.53;7.53;;;16.00;99.90;;;;;;5075727;28;20493;-73
2023/10/11 01:46:21;;;;;;;11.47;8.70;;;16.00;99.90;;;;;;5075528;28;20834;-71
2023/10/11 01:48:49;;;;;;;16.57;8.83;;;16.00;99.90;;;;;;5075600;28;20513;-71
2023/10/11 01:51:26;;;;;;;11.93;8.60;;;16.00;99.90;;;;;;5056926;28;20486;-71
2023/10/11 01:54:00;;;;;;;15.80;8.40;;;15.90;99.90;;;;;;5056537;28;20977;-71
2023/10/11 01:56:28;;;;;;;11.60;7.20;;;15.90;99.90;;;;;;5078874;28;20461;-70
2023/10/11 01:58:56;;;;;;;16.17;8.50;;;15.90;99.90;;;;;;5079723;28;20458;-71
2023/10/11 02:01:26;;;;;;;11.87;8.00;;;15.90;99.90;;;;;;5085821;28;20517;-71
2023/10/11 02:03:58;;;;;;;14.13;8.30;;;15.90;99.90;;;;;;5087145;28;20462;-71
2023/10/11 02:06:31;;;;;;;14.20;7.87;;;15.80;99.90;;;;;;5088006;28;20441;-72
2023/10/11 02:08:59;;;;;;;11.30;8.10;;;15.90;99.90;;;;;;5086646;28;20795;-72
2023/10/11 02:11:29;;;;;;;15.03;7.93;;;15.80;99.90;;;;;;5085209;28;20455;-71
2023/10/11 02:13:57;;;;;;;10.40;7.17;;;15.80;99.90;;;;;;5086272;28;20476;-71
2023/10/11 02:16:24;;;;;;;12.20;8.03;;;15.80;99.90;;;;;;5067612;28;20549;-71
2023/10/11 02:18:58;;;;;;;15.00;9.07;;;15.80;99.90;;;;;;5064150;28;20455;-71
2023/10/11 02:21:29;;;;;;;12.53;7.30;;;15.80;99.90;;;;;;5072118;28;20470;-71
2023/10/11 02:23:57;;;;;;;16.97;9.57;;;15.80;99.90;;;;;;5080538;28;20881;-71
2023/10/11 02:26:32;;;;;;;11.57;8.30;;;15.80;99.90;;;;;;5077208;28;20500;-71
2023/10/11 02:29:06;;;;;;;13.20;8.37;;;15.80;99.90;;;;;;5075667;28;20490;-70
2023/10/11 02:31:36;;;;;;;10.93;7.57;;;15.80;99.90;;;;;;5074631;28;20514;-72
2023/10/11 02:34:12;;;;;;;10.80;7.10;;;15.70;99.90;;;;;;5074637;28;20466;-71
2023/10/11 02:36:44;;;;;;;11.47;8.30;;;15.70;99.90;;;;;;5077709;28;20443;-71
2023/10/11 02:39:17;;;;;;;14.50;7.70;;;15.70;99.90;;;;;;5077190;28;20426;-71
2023/10/11 02:41:50;;;;;;;14.40;7.50;;;15.70;99.90;;;;;;5080932;28;20821;-72
2023/10/11 02:44:25;;;;;;;12.20;7.60;;;15.70;99.90;;;;;;5081568;28;20513;-70
2023/10/11 02:46:52;;;;;;;12.60;7.17;;;15.60;99.90;;;;;;5080830;28;20430;-70
2023/10/11 02:49:20;;;;;;;12.77;7.93;;;15.70;99.90;;;;;;5078258;28;20431;-72
2023/10/11 02:51:54;;;;;;;13.60;7.23;;;15.60;99.90;;;;;;5060536;28;20510;-70
2023/10/11 02:54:21;;;;;;;10.10;6.60;;;15.60;99.90;;;;;;5079695;28;20524;-72
2023/10/11 02:56:49;;;;;;;14.87;7.70;;;15.60;99.90;;;;;;5081498;28;20434;-71
2023/10/11 02:59:19;;;;;;;9.97;6.80;;;15.60;99.90;;;;;;5082376;28;20415;-72
2023/10/11 03:01:59;;;;;;;10.20;6.77;;;15.60;99.90;;;;;;5082272;28;20449;-71
2023/10/11 03:04:30;;;;;;;16.07;8.20;;;15.60;99.90;;;;;;5081133;28;20462;-73
2023/10/11 03:07:04;;;;;;;15.60;7.43;;;15.60;99.90;;;;;;5079827;28;20442;-72
2023/10/11 03:09:33;;;;;;;11.73;6.63;;;15.50;99.90;;;;;;5077284;28;20484;-72
2023/10/11 03:12:06;;;;;;;18.23;8.37;;;15.50;99.90;;;;;;5075882;28;20564;-71
2023/10/11 03:14:41;;;;;;;12.20;6.77;;;15.40;99.90;;;;;;5071450;28;20477;-72
2023/10/11 03:17:13;;;;;;;9.87;7.53;;;15.40;99.90;;;;;;5074640;28;20457;-73
2023/10/11 03:19:42;;;;;;;11.73;7.20;;;15.40;99.90;;;;;;5060840;28;20899;-73
2023/10/11 03:22:12;;;;;;;12.10;6.90;;;15.40;99.90;;;;;;5068728;28;20473;-73
2023/10/11 03:24:41;;;;;;;11.70;7.80;;;15.40;99.90;;;;;;5061312;28;20455;-71
2023/10/11 03:27:10;;;;;;;21.47;7.77;;;15.40;99.90;;;;;;5041607;28;20439;-72
2023/10/11 03:29:40;;;;;;;14.60;6.60;;;15.40;99.90;;;;;;5065533;28;20454;-71
2023/10/11 03:32:07;;;;;;;15.23;6.00;;;15.30;99.90;;;;;;5072215;28;20458;-72
2023/10/11 03:34:36;;;;;;;14.17;6.10;;;15.30;99.90;;;;;;5069092;28;20489;-72
2023/10/11 03:37:10;;;;;;;12.70;7.50;;;15.30;99.90;;;;;;5072773;28;20494;-71
2023/10/11 03:39:44;;;;;;;9.63;6.63;;;15.30;99.90;;;;;;5051839;28;20509;-72
2023/10/11 03:42:14;;;;;;;6.90;6.17;;;15.30;99.90;;;;;;5069273;28;20465;-72
2023/10/11 03:44:45;;;;;;;14.10;7.00;;;15.30;99.90;;;;;;5071728;28;20481;-71
2023/10/11 03:47:14;;;;;;;12.70;6.97;;;15.20;99.90;;;;;;5066902;28;20489;-72
2023/10/11 03:49:51;;;;;;;8.27;6.73;;;15.20;99.90;;;;;;5063265;28;20500;-72
2023/10/11 03:52:22;;;;;;;11.33;6.33;;;15.20;99.90;;;;;;5074148;28;20470;-71
2023/10/11 03:54:55;;;;;;;10.80;5.70;;;15.20;99.90;;;;;;5076553;28;20479;-71
2023/10/11 03:57:24;;;;;;;9.07;6.03;;;15.20;99.90;;;;;;5072574;28;20466;-71
2023/10/11 03:59:51;;;;;;;13.07;6.13;;;15.20;99.90;;;;;;5066631;28;20491;-71
2023/10/11 04:02:19;;;;;;;11.33;6.20;;;15.10;99.90;;;;;;5046440;28;20451;-70
2023/10/11 04:04:49;;;;;;;11.90;6.90;;;15.10;99.90;;;;;;5067971;28;20455;-73
2023/10/11 04:07:21;;;;;;;10.57;6.70;;;15.10;99.90;;;;;;5074271;28;20426;-70
2023/10/11 04:09:49;;;;;;;8.97;5.83;;;15.10;99.90;;;;;;5074770;28;20435;-71
2023/10/11 04:12:17;;;;;;;14.40;7.80;;;15.10;99.90;;;;;;5071112;28;20524;-71
2023/10/11 04:14:45;;;;;;;8.33;5.50;;;15.10;99.90;;;;;;5088172;28;20470;-71
2023/10/11 04:17:25;;;;;;;10.07;6.67;;;15.10;99.90;;;;;;5071724;28;20807;-72
2023/10/11 04:20:16;;;;;;;12.50;6.50;;;15.10;99.90;;;;;;5066380;28;20490;-71
2023/10/11 04:22:50;;;;;;;13.67;6.13;;;15.10;99.90;;;;;;5068944;28;20430;-70
2023/10/11 04:25:22;;;;;;;11.00;6.60;;;15.10;99.90;;;;;;5071418;28;20464;-71
2023/10/11 04:27:55;;;;;;;11.00;6.03;;;15.10;99.90;;;;;;5080302;28;20433;-71
2023/10/11 04:30:26;;;;;;;15.70;6.80;;;15.10;99.90;;;;;;5080633;28;20441;-71
2023/10/11 04:32:57;;;;;;;11.57;7.03;;;15.20;99.90;;;;;;5082567;28;20419;-71
2023/10/11 04:35:25;;;;;;;12.47;6.77;;;15.20;99.90;;;;;;5073396;28;20430;-73
2023/10/11 04:37:54;;;;;;;6.97;4.90;;;15.20;99.90;;;;;;5076641;28;20426;-70
2023/10/11 04:40:41;;;;;;;8.37;6.20;;;15.20;99.90;;;;;;5071008;28;20463;-71
2023/10/11 04:43:20;;;;;;;10.13;5.70;;;15.30;99.90;;;;;;5064718;28;20462;-71
2023/10/11 04:45:50;;;;;;;10.57;5.37;;;15.20;99.90;;;;;;5065040;28;20438;-71
2023/10/11 04:48:29;;;;;;;11.43;7.20;;;15.20;99.90;;;;;;5055890;28;20989;-72
2023/10/11 04:51:04;;;;;;;16.53;6.57;;;15.30;99.90;;;;;;5062668;28;20442;-72
2023/10/11 04:53:35;;;;;;;15.80;6.77;;;15.30;99.90;;;;;;5060361;28;20504;-72
2023/10/11 04:56:15;;;;;;;10.03;6.90;;;15.30;99.90;;;;;;5078458;28;20442;-72
2023/10/11 04:58:42;;;;;;;12.67;7.43;;;15.30;99.90;;;;;;5057716;28;20453;-71
2023/10/11 05:01:11;;;;;;;8.13;6.20;;;15.30;99.90;;;;;;5058380;28;20463;-71
2023/10/11 05:03:42;;;;;;;14.67;6.60;;;15.30;99.90;;;;;;5061453;28;21029;-72
2023/10/11 05:06:30;;;;;;;14.43;6.47;;;15.30;99.90;;;;;;5063936;28;20459;-73
2023/10/11 05:09:06;;;;;;;7.30;5.17;;;15.30;99.90;;;;;;5060428;28;20523;-72
2023/10/11 05:11:42;;;;;;;14.87;6.13;;;15.30;99.90;;;;;;5059043;28;20447;-72
2023/10/11 05:14:28;;;;;;;8.80;6.33;;;15.40;99.90;;;;;;5060111;28;20479;-70
2023/10/11 05:16:59;;;;;;;11.73;6.53;;;15.30;99.90;;;;;;5061647;28;20483;-71
2023/10/11 05:19:28;;;;;;;12.90;5.20;;;15.30;99.90;;;;;;5060098;28;20475;-71
2023/10/11 05:21:55;;;;;;;9.10;5.30;;;15.40;99.90;;;;;;5072018;28;20824;-71
2023/10/11 05:24:43;;;;;;;14.53;6.80;;;15.40;99.90;;;;;;5077125;28;20863;-71
2023/10/11 05:27:35;;;;;;;9.20;6.30;;;15.40;99.90;;;;;;5079076;28;20427;-70
2023/10/11 05:30:12;;;;;;;10.63;5.13;;;15.40;99.90;;;;;;5073367;28;20939;-73
2023/10/11 05:32:41;;;;;;;14.43;9.17;;;15.30;99.90;;;;;;5059274;28;20443;-72
2023/10/11 05:35:25;;;;;;;16.97;5.80;;;15.30;99.90;;;;;;5073896;28;20953;-72
2023/10/11 05:51:39;;;;;;;10.70;6.33;;;15.40;99.90;;;;;;5071327;28;20434;-71
2023/10/11 05:54:09;;;;;;;10.40;6.67;;;15.40;99.90;;;;;;5071868;28;20836;-71
2023/10/11 05:56:38;;;;;;;11.63;5.10;;;15.50;99.90;;;;;;5070781;28;20877;-72
2023/10/11 05:59:10;;;;;;;11.00;5.00;;;15.50;99.90;;;;;;5073825;28;20438;-73
2023/10/11 06:01:38;;;;;;;10.87;5.77;;;15.60;99.90;;;;;;5074189;28;21026;-73
2023/10/11 06:04:08;;;;;;;6.40;3.97;;;15.60;99.90;;;;;;5073630;28;20466;-73
2023/10/11 06:06:41;;;;;;;10.87;4.93;;;15.60;99.90;;;;;;5078703;28;20450;-73
2023/10/11 06:09:16;;;;;;;10.90;4.93;;;15.70;99.90;;;;;;5078842;28;20462;-73
2023/10/11 06:11:48;;;;;;;8.87;5.13;;;15.70;99.90;;;;;;5081278;28;20448;-72
2023/10/11 06:14:17;;;;;;;11.60;3.80;;;15.80;99.90;;;;;;5080813;28;20540;-72
2023/10/11 06:16:49;;;;;;;14.03;5.00;;;15.80;99.90;;;;;;5081332;28;20487;-72
2023/10/11 06:19:17;;;;;;;6.80;5.40;;;15.90;99.90;;;;;;5081971;28;20454;-73
2023/10/11 06:21:57;;;;;;;16.23;6.10;;;15.90;99.90;;;;;;5083098;28;20486;-72
2023/10/11 06:24:26;;;;;;;12.77;5.70;;;16.00;99.90;;;;;;5086450;28;20472;-72
2023/10/11 06:26:53;;;;;;;9.47;5.40;;;16.00;99.90;;;;;;5081737;28;20430;-72
2023/10/11 06:29:37;;;;;;;8.77;5.47;;;16.10;99.90;;;;;;5083586;28;20570;-74
2023/10/11 06:32:10;;;;;;;10.17;5.90;;;16.10;99.90;;;;;;5083266;28;20438;-72
2023/10/11 06:34:37;;;;;;;8.70;4.77;;;16.20;99.90;;;;;;5080341;28;20534;-70
2023/10/11 06:37:06;;;;;;;11.57;5.23;;;16.30;99.90;;;;;;5076083;28;20467;-72
2023/10/11 06:40:07;;;;;;;13.93;5.17;;;16.30;99.90;;;;;;5058934;28;20438;-72
2023/10/11 06:42:21;;;;;;;10.27;5.63;;;16.40;99.90;;;;;;5066726;28;20475;-73
2023/10/11 06:44:57;;;;;;;7.93;4.40;;;16.50;99.90;;;;;;5068542;28;20498;-73
2023/10/11 06:47:33;;;;;;;8.07;4.40;;;16.50;99.90;;;;;;5069095;28;20532;-73
2023/10/11 06:50:10;;;;;;;10.50;5.10;;;16.60;99.90;;;;;;5071748;28;20470;-73
2023/10/11 06:52:43;;;;;;;13.77;5.33;;;16.70;99.90;;;;;;5058633;28;20504;-71
2023/10/11 06:55:25;;;;;;;8.00;4.53;;;16.70;99.90;;;;;;5058417;28;20479;-75
2023/10/11 06:57:55;;;;;;;9.87;5.50;;;16.80;99.90;;;;;;5057874;28;20492;-75
2023/10/11 07:00:28;;;;;;;8.57;4.03;;;16.90;99.90;;;;;;5062535;28;20438;-74
2023/10/11 07:03:06;;;;;;;7.70;4.10;;;17.00;99.90;;;;;;5065661;28;20529;-75
2023/10/11 07:05:40;;;;;;;9.10;5.47;;;17.10;99.90;;;;;;5061618;28;20520;-75
2023/10/11 07:08:08;;;;;;;7.10;5.30;;;17.20;99.90;;;;;;5069311;28;20857;-73
2023/10/11 07:10:45;;;;;;;8.10;4.90;;;17.30;99.90;;;;;;5060487;28;20463;-72
2023/10/11 07:13:13;;;;;;;7.30;4.93;;;17.40;99.90;;;;;;5065150;28;20466;-71
2023/10/11 07:15:46;;;;;;;6.60;5.00;;;17.50;99.90;;;;;;5072519;28;20446;-72
2023/10/11 07:18:21;;;;;;;7.97;5.53;;;17.50;99.90;;;;;;5071743;28;20795;-74
2023/10/11 07:20:58;;;;;;;7.60;6.80;;;17.60;99.90;;;;;;5068937;28;20462;-71
2023/10/11 07:23:46;;;;;;;5.50;3.80;;;17.70;99.90;;;;;;5087739;28;20458;-72
2023/10/11 07:29:03;;;;;;;6.40;4.30;;;17.80;99.90;;;;;;5077638;28;20954;-72
2023/10/11 07:31:38;;;;;;;12.27;4.83;;;17.90;99.90;;;;;;5074120;28;20447;-70
2023/10/11 07:34:09;;;;;;;19.73;12.20;;;18.00;99.90;;;;;;5072850;28;20493;-74
2023/10/11 07:36:37;;;;;;;10.43;6.60;;;18.10;99.90;;;;;;5066815;28;20446;-73
2023/10/11 07:39:14;;;;;;;10.90;4.70;;;18.20;99.90;;;;;;5058768;28;20500;-73
2023/10/11 07:41:42;;;;;;;10.83;4.93;;;18.30;99.90;;;;;;5072916;28;20466;-72
2023/10/11 07:44:10;;;;;;;8.17;5.60;;;18.40;99.90;;;;;;5072037;28;20478;-71
2023/10/11 07:46:40;;;;;;;5.27;3.87;;;18.50;99.90;;;;;;5072346;28;20427;-70
2023/10/11 07:49:14;;;;;;;9.83;4.50;;;18.50;99.90;;;;;;5075305;28;20492;-72
2023/10/11 07:51:42;;;;;;;7.87;4.70;;;18.60;99.90;;;;;;5075951;28;20860;-71
2023/10/11 07:54:19;;;;;;;10.60;5.30;;;18.70;99.90;;;;;;5066278;28;20466;-69
2023/10/11 07:56:52;;;;;;;11.20;4.07;;;18.70;99.90;;;;;;5055715;28;20474;-69
2023/10/11 07:59:23;;;;;;;7.67;4.60;;;18.80;99.90;;;;;;5055681;28;20782;-70
2023/10/11 08:01:53;;;;;;;12.53;7.53;;;18.90;99.90;;;;;;5038154;28;20512;-69
2023/10/11 08:04:27;;;;;;;7.17;5.40;;;19.00;99.90;;;;;;5036879;28;20509;-71
2023/10/11 08:07:03;;;;;;;7.70;5.40;;;19.00;99.90;;;;;;5068195;28;20437;-70
2023/10/11 08:09:45;;;;;;;10.57;4.57;;;19.10;99.90;;;;;;5057799;28;20492;-72
2023/10/11 08:12:13;;;;;;;7.70;4.50;;;19.10;99.90;;;;;;5055403;28;20462;-69
2023/10/11 08:14:44;;;;;;;8.07;4.90;;;19.30;99.90;;;;;;5066128;28;20462;-70
2023/10/11 08:17:14;;;;;;;7.90;4.40;;;19.40;99.90;;;;;;5074958;28;20799;-71
2023/10/11 08:19:44;;;;;;;6.53;4.77;;;19.40;99.90;;;;;;5074765;28;20452;-69
2023/10/11 08:22:14;;;;;;;8.60;4.97;;;19.50;99.90;;;;;;5074666;28;20462;-69
2023/10/11 08:24:48;;;;;;;15.57;5.00;;;19.60;99.90;;;;;;5074464;28;20979;-71
2023/10/11 08:27:22;;;;;;;10.30;4.00;;;19.70;99.90;;;;;;5058811;28;20485;-71
2023/10/11 08:29:54;;;;;;;5.97;4.10;;;19.80;99.90;;;;;;5076025;28;20437;-69
2023/10/11 08:32:27;;;;;;;6.37;3.87;;;20.00;99.90;;;;;;5074447;28;20465;-69
2023/10/11 08:34:56;;;;;;;9.73;4.97;;;20.10;99.90;;;;;;5070872;28;20482;-69
2023/10/11 08:37:46;;;;;;;9.40;4.40;;;20.20;99.90;;;;;;5072536;28;20478;-69
2023/10/11 08:42:59;;;;;;;10.57;4.40;;;20.60;99.90;;;;;;5073645;28;20563;-70
2023/10/11 08:45:32;;;;;;;4.63;3.73;;;20.80;99.90;;;;;;5075107;28;20433;-71
2023/10/11 08:51:36;;;;;;;10.83;4.83;;;21.10;99.90;;;;;;5064152;28;20478;-71
2023/10/11 08:54:11;;;;;;;9.17;4.40;;;21.20;99.90;;;;;;5074032;28;21034;-68
2023/10/11 08:56:38;;;;;;;22.80;9.73;;;21.30;99.90;;;;;;5074917;28;20426;-70
2023/10/11 08:59:07;;;;;;;6.53;4.30;;;21.40;99.90;;;;;;5074354;28;20455;-70
2023/10/11 09:01:37;;;;;;;9.63;5.67;;;21.70;99.90;;;;;;5074809;28;20466;-70
2023/10/11 09:04:07;;;;;;;10.37;6.33;;;21.90;99.90;;;;;;5054972;28;20482;-69
2023/10/11 09:06:36;;;;;;;11.80;5.10;;;22.00;99.90;;;;;;5042565;28;20447;-70
2023/10/11 09:09:04;;;;;;;6.73;4.30;;;22.20;99.90;;;;;;5065573;28;20462;-69
2023/10/11 09:11:34;;;;;;;11.93;5.13;;;22.30;99.90;;;;;;5059567;28;20439;-71
2023/10/11 09:14:12;;;;;;;11.37;4.33;;;22.30;99.90;;;;;;5057269;28;20866;-70
2023/10/11 09:16:43;;;;;;;9.47;3.90;;;22.30;99.90;;;;;;5056804;28;20428;-71
2023/10/11 09:19:11;;;;;;;5.10;3.87;;;22.30;99.90;;;;;;5071156;28;20468;-69
2023/10/11 09:22:04;;;;;;;7.97;4.57;;;22.50;99.90;;;;;;5058978;28;20497;-69
2023/10/11 09:24:38;;;;;;;5.67;4.30;;;22.90;99.90;;;;;;5076187;28;20781;-70
2023/10/11 09:27:18;;;;;;;5.70;3.33;;;23.10;99.90;;;;;;5076098;28;20438;-69
2023/10/11 09:29:49;;;;;;;8.77;4.20;;;23.10;99.90;;;;;;5070714;28;20479;-71
2023/10/11 09:32:27;;;;;;;7.83;3.97;;;23.00;99.90;;;;;;5070086;28;20447;-71
2023/10/11 09:34:54;;;;;;;7.30;4.47;;;23.00;99.90;;;;;;5060978;28;20469;-71
2023/10/11 09:37:25;;;;;;;5.97;4.60;;;22.90;99.90;;;;;;5075456;28;20526;-72
2023/10/11 09:39:57;;;;;;;8.50;4.43;;;22.80;99.90;;;;;;5075491;28;20987;-70
2023/10/11 09:42:29;;;;;;;8.90;4.47;;;22.80;99.90;;;;;;5075481;28;20486;-72
2023/10/11 09:44:59;;;;;;;7.90;4.67;;;22.80;99.90;;;;;;5050375;28;20510;-68
2023/10/11 09:47:31;;;;;;;7.57;4.90;;;23.10;99.90;;;;;;5055028;28;20427;-70
2023/10/11 09:50:01;;;;;;;7.73;4.67;;;23.10;99.90;;;;;;5055474;28;20444;-69
2023/10/11 09:52:34;;;;;;;6.70;4.77;;;22.90;99.90;;;;;;5069999;28;20423;-68
2023/10/11 09:55:14;;;;;;;8.13;5.20;;;22.70;99.90;;;;;;5074172;28;20534;-69
2023/10/11 09:57:51;;;;;;;6.33;4.50;;;22.70;99.90;;;;;;5072746;28;20560;-69
2023/10/11 10:00:34;;;;;;;4.70;3.77;;;22.70;99.90;;;;;;5071362;28;20423;-70
2023/10/11 10:03:04;;;;;;;6.40;3.70;;;22.80;99.90;;;;;;5074048;28;20489;-70
2023/10/11 10:06:06;;;;;;;11.33;4.47;;;23.10;99.90;;;;;;5075268;28;20442;-71
2023/10/11 10:08:35;;;;;;;8.70;4.40;;;23.40;99.90;;;;;;5074975;28;20488;-71
2023/10/11 10:11:04;;;;;;;8.20;4.90;;;23.60;99.90;;;;;;5074246;28;20434;-72
2023/10/11 10:14:01;;;;;;;10.97;4.60;;;24.00;99.90;;;;;;5074826;28;20455;-70
2023/10/11 10:17:11;;;;;;;6.33;4.40;;;24.50;99.90;;;;;;5069738;28;20433;-70
2023/10/11 10:19:43;;;;;;;9.00;3.70;;;24.80;99.90;;;;;;5077636;28;20474;-71
2023/10/11 10:22:22;;;;;;;5.93;4.20;;;24.90;99.90;;;;;;5076661;28;20466;-70
2023/10/11 10:24:54;;;;;;;7.63;3.80;;;25.10;99.90;;;;;;5076110;28;20576;-71
2023/10/11 10:27:38;;;;;;;7.40;4.50;;;25.30;99.90;;;;;;5076168;28;20427;-71
2023/10/11 10:30:07;;;;;;;6.00;3.27;;;25.40;99.90;;;;;;5077095;28;20443;-71
2023/10/11 10:32:34;;;;;;;4.83;3.67;;;25.50;99.90;;;;;;5073847;28;20450;-70
2023/10/11 10:35:26;;;;;;;7.23;4.10;;;25.40;99.90;;;;;;5074627;28;20477;-71
2023/10/11 10:38:03;;;;;;;5.63;4.00;;;25.30;99.90;;;;;;5062523;28;20469;-70
2023/10/11 10:40:37;;;;;;;7.57;5.47;;;25.30;99.90;;;;;;5072874;28;20442;-70
2023/10/11 10:43:24;;;;;;;10.17;5.00;;;25.30;99.90;;;;;;5073508;28;20498;-69
2023/10/11 10:45:52;;;;;;;6.30;3.43;;;25.40;99.90;;;;;;5075807;28;20450;-69
2023/10/11 10:48:23;;;;;;;6.47;3.50;;;25.40;99.90;;;;;;5087557;28;20429;-71
2023/10/11 10:50:50;;;;;;;10.93;4.47;;;25.60;99.90;;;;;;5064616;28;20784;-73
2023/10/11 10:53:19;;;;;;;8.00;4.43;;;25.60;99.90;;;;;;5072630;28;20541;-73
2023/10/11 10:55:47;;;;;;;9.70;4.30;;;25.60;99.90;;;;;;5072254;28;20482;-77
2023/10/11 10:58:19;;;;;;;6.73;3.97;;;25.70;99.90;;;;;;5072956;28;20484;-73
2023/10/11 11:00:51;;;;;;;5.27;3.83;;;25.80;99.90;;;;;;5071749;28;20423;-73
2023/10/11 11:03:20;;;;;;;5.80;3.90;;;25.70;99.90;;;;;;5071131;28;20474;-71
2023/10/11 11:05:55;;;;;;;5.90;3.73;;;25.60;99.90;;;;;;5069314;28;20482;-68
2023/10/11 11:08:27;;;;;;;7.90;4.80;;;25.40;99.90;;;;;;5071013;28;20943;-73
2023/10/11 11:13:59;;;;;;;6.60;3.20;;;25.00;99.90;;;;;;5055037;28;20438;-73
2023/10/11 11:16:26;;;;;;;8.03;4.57;;;24.80;99.90;;;;;;5070467;28;20517;-69
2023/10/11 11:19:00;;;;;;;7.30;4.20;;;24.70;99.90;;;;;;5071568;28;20427;-73
2023/10/11 11:21:30;;;;;;;8.43;3.70;;;24.60;99.90;;;;;;5071907;28;20457;-73
2023/10/11 11:24:17;;;;;;;7.00;4.27;;;24.60;99.90;;;;;;5070954;28;20816;-72
2023/10/11 11:26:46;;;;;;;8.03;4.43;;;24.60;99.90;;;;;;5051420;28;20454;-74
2023/10/11 11:29:31;;;;;;;8.93;4.00;;;24.60;99.90;;;;;;5065372;28;20446;-74
2023/10/11 11:31:59;;;;;;;6.57;3.63;;;24.50;99.90;;;;;;5072887;28;20435;-71
2023/10/11 11:34:34;;;;;;;15.60;8.63;;;24.40;99.90;;;;;;5071947;28;20458;-73
2023/10/11 11:37:04;;;;;;;13.10;6.10;;;24.40;99.90;;;;;;5067015;28;20442;-73
2023/10/11 11:39:36;;;;;;;7.13;5.03;;;24.40;99.90;;;;;;5071310;28;20435;-72
2023/10/11 11:42:09;;;;;;;8.03;4.40;;;24.40;99.90;;;;;;5071227;28;20506;-70
2023/10/11 11:44:37;;;;;;;8.50;4.50;;;24.30;99.90;;;;;;5071006;28;20545;-72
2023/10/11 11:47:21;;;;;;;6.60;4.10;;;24.30;99.90;;;;;;5059819;28;20873;-71
2023/10/11 11:49:47;;;;;;;9.20;4.30;;;24.30;99.90;;;;;;5062883;28;20441;-72
2023/10/11 11:52:17;;;;;;;7.93;4.50;;;24.30;99.90;;;;;;5070998;28;20513;-72
2023/10/11 11:54:47;;;;;;;12.03;3.93;;;24.40;99.90;;;;;;5052552;28;20458;-72
2023/10/11 11:57:28;;;;;;;7.93;4.30;;;24.40;99.90;;;;;;5071825;28;20431;-73
2023/10/11 11:59:55;;;;;;;7.30;3.77;;;24.30;99.90;;;;;;5072907;28;20466;-74
2023/10/11 12:02:26;;;;;;;5.33;3.73;;;24.40;99.90;;;;;;5071118;28;20481;-76
2023/10/11 12:04:52;;;;;;;8.63;4.40;;;24.40;99.90;;;;;;5071778;28;20477;-75
2023/10/11 12:07:19;;;;;;;5.13;3.83;;;24.40;99.90;;;;;;5071628;28;20466;-75
2023/10/11 12:09:46;;;;;;;6.07;4.30;;;24.40;99.90;;;;;;5070761;28;20442;-74
2023/10/11 12:12:16;;;;;;;5.53;4.33;;;24.30;99.90;;;;;;5071771;28;20845;-72
2023/10/11 12:14:43;;;;;;;7.77;4.47;;;24.30;99.90;;;;;;5071949;28;20650;-73
2023/10/11 12:17:13;;;;;;;9.70;4.73;;;24.30;99.90;;;;;;5071111;28;20430;-72
2023/10/11 12:19:42;;;;;;;7.70;4.90;;;24.20;99.90;;;;;;5070552;28;20489;-74
2023/10/11 12:22:14;;;;;;;7.60;4.07;;;24.30;99.90;;;;;;5071507;28;20586;-74
2023/10/11 12:24:44;;;;;;;6.13;3.70;;;24.30;99.90;;;;;;5072149;28;20502;-73
2023/10/11 12:27:12;;;;;;;11.40;4.23;;;24.30;99.90;;;;;;5072224;28;20484;-75
2023/10/11 12:29:43;;;;;;;6.03;4.07;;;24.30;99.90;;;;;;5084341;28;20477;-74
2023/10/11 12:32:13;;;;;;;5.77;3.40;;;24.30;99.90;;;;;;5091957;28;20516;-73
2023/10/11 12:34:40;;;;;;;6.53;4.00;;;24.30;99.90;;;;;;5086571;28;20473;-72
2023/10/11 12:37:14;;;;;;;9.20;5.50;;;24.30;99.90;;;;;;5077569;28;20430;-75
2023/10/11 12:39:42;;;;;;;4.90;4.13;;;24.30;99.90;;;;;;5077795;28;20859;-74
2023/10/11 12:42:56;;;;;;;8.60;3.60;;;24.30;99.90;;;;;;5077355;28;20525;-75
2023/10/11 12:48:54;;;;;;;7.60;4.20;;;24.30;99.90;;;;;;5083854;28;20473;-74
2023/10/11 12:54:57;;;;;;;7.23;3.87;;;24.30;99.90;;;;;;5054315;28;20472;-73
2023/10/11 13:00:51;;;;;;;10.10;3.40;;;24.20;99.90;;;;;;5053775;28;20846;-74
2023/10/11 13:06:49;;;;;;;5.50;4.60;;;24.00;99.90;;;;;;5015063;28;20413;-76
2023/10/11 13:09:49;;;;;;;8.30;4.80;;;24.00;99.90;;;;;;4993174;28;20501;-76
2023/10/11 13:15:39;;;;;;;9.00;4.43;;;23.90;99.90;;;;;;5048525;28;20442;-74
2023/10/11 13:24:54;;;;;;;9.00;4.60;;;23.80;99.90;;;;;;5039674;28;21030;-75
2023/10/11 13:31:01;;;;;;;5.63;4.03;;;23.90;99.90;;;;;;5076600;28;20378;-76
2023/10/11 13:36:51;;;;;;;5.07;3.67;;;24.00;99.90;;;;;;5078139;28;20898;-73
2023/10/11 13:42:42;;;;;;;5.07;3.90;;;24.00;99.90;;;;;;5076240;28;20986;-75
2023/10/11 13:48:37;;;;;;;6.23;3.37;;;24.00;99.90;;;;;;5075394;28;20448;-75
2023/10/11 14:06:59;;;;;;;8.03;5.37;;;24.00;99.90;;;;;;5075160;28;20413;-74
2023/10/11 14:12:55;;;;;;;6.50;4.50;;;24.00;99.90;;;;;;5052912;28;20433;-74
2023/10/11 14:18:45;;;;;;;7.03;3.73;;;23.90;99.90;;;;;;5052911;28;20411;-74
2023/10/11 14:24:35;;;;;;;7.17;3.80;;;23.90;99.90;;;;;;5032665;28;20463;-76
2023/10/11 14:27:46;;;;;;;4.63;3.50;;;23.90;99.90;;;;;;5037812;28;20963;-75
2023/10/11 14:33:36;;;;;;;10.67;4.07;;;23.70;99.90;;;;;;5064487;28;20469;-76
2023/10/11 14:43:11;;;;;;;7.23;3.80;;;23.60;99.90;;;;;;5096926;28;20484;-73
2023/10/11 14:49:04;;;;;;;6.57;3.90;;;23.50;99.90;;;;;;5075456;28;20390;-73
2023/10/11 14:54:54;;;;;;;6.07;3.70;;;23.40;99.90;;;;;;5074496;28;20422;-72